This is the latest recevied weather packets stored in our database for station/object F4ELU-13. If no packets are shown the sender has not sent any weather packets the latest 1 day(s).
| Time | Temp. | Humidity | Pressure | Rain* | Wind** | Luminosity | Snow |
|---|---|---|---|---|---|---|---|
| 1777998423 | 15° C | 87% | 1008.1 hPa | 0 mm | 0.45 m/s, 121° | - | - |
| 1777997883 | 15° C | 88% | 1008.2 hPa | 0 mm | 0.89 m/s, 156° | - | - |
| 1777997343 | 15° C | 91% | 1008.1 hPa | 0 mm | 0.89 m/s, 162° | - | - |
| 1777996803 | 14.44° C | 93% | 1007.9 hPa | 0 mm | 0.89 m/s, 193° | - | - |
| 1777996443 | 14.44° C | 93% | 1007.8 hPa | 0 mm | 1.34 m/s, 190° | - | - |
| 1777995903 | 15° C | 89% | 1007.8 hPa | 0 mm | 2.24 m/s, 184° | - | - |
| 1777995363 | 15.56° C | 86% | 1007.8 hPa | 0 mm | 0.89 m/s, 200° | - | - |
| 1777994823 | 16.11° C | 80% | 1007.9 hPa | 0 mm | 0.45 m/s, 193° | - | - |
| 1777994283 | 17.22° C | 77% | 1007.9 hPa | 0 mm | 0.45 m/s, 229° | - | - |
| 1777993743 | 17.78° C | 75% | 1007.9 hPa | 0 mm | 1.79 m/s, 232° | - | - |
| 1777993203 | 18.89° C | 70% | 1007.8 hPa | 0 mm | 1.79 m/s, 193° | - | - |
| 1777992843 | 17.22° C | 75% | 1007.7 hPa | 0 mm | 0.45 m/s, 188° | - | - |
| 1777992303 | 17.78° C | 75% | 1007.9 hPa | 0 mm | 0.89 m/s, 198° | - | - |
| 1777991763 | 17.78° C | 73% | 1007.8 hPa | 0 mm | 0.89 m/s, 193° | - | - |
| 1777991223 | 18.33° C | 74% | 1007.9 hPa | 0 mm | 0.89 m/s, 201° | - | - |
| 1777990683 | 18.33° C | 73% | 1008 hPa | 0 mm | 0.45 m/s, 208° | - | - |
| 1777990143 | 18.33° C | 77% | 1008.1 hPa | 0 mm | 1.79 m/s, 196° | - | - |
| 1777989603 | 18.89° C | 73% | 1008 hPa | 0 mm | 1.34 m/s, 206° | - | - |
| 1777989243 | 18.33° C | 77% | 1008.1 hPa | 0 mm | 3.13 m/s, 210° | - | - |
| 1777988703 | 18.89° C | 74% | 1008.1 hPa | 0 mm | 1.79 m/s, 193° | - | - |
| 1777988163 | 17.22° C | 76% | 1008 hPa | 0 mm | 3.58 m/s, 207° | - | - |
| 1777987623 | 17.78° C | 74% | 1008.2 hPa | 0 mm | 1.79 m/s, 196° | - | - |
| 1777987083 | 16.67° C | 75% | 1008 hPa | 0 mm | 3.58 m/s, 202° | - | - |
| 1777986543 | 17.22° C | 80% | 1008.1 hPa | 0 mm | 3.58 m/s, 189° | - | - |
| 1777986003 | 17.22° C | 78% | 1008.3 hPa | 0 mm | 3.13 m/s, 193° | - | - |
* Rain latest hour (hover to see other rain measurements)
** Current wind speed in m/s (hover to see current wind gust speed)